Time,TemperatureF,DewpointF,PressureIn,WindDirection,WindDirectionDegrees,WindSpeedMPH,WindSpeedGustMPH,Humidity,HourlyPrecipIn,Conditions,Clouds,dailyrainin,SoftwareType,DateUTC
2013-08-08 00:00:00,77.4,55.7,28.18,NNE,25,1.6,4.3,82,0.00,,,-99.99,HOBO +U30 +Weather +,2013-08-08 07:00:00,
2013-08-08 00:15:00,77.3,55.5,28.18,NE,45,0.9,2.5,83,0.00,,,-99.99,HOBO +U30 +Weather +,2013-08-08 07:15:00,
2013-08-08 00:30:00,77.1,55.1,28.18,NNE,31,0.4,24.2,85,0.00,,,-99.99,HOBO +U30 +Weather +,2013-08-08 07:30:00,
2013-08-08 00:45:00,77.0,54.7,28.18,NNE,14,0.9,24.2,87,0.00,,,-99.99,HOBO +U30 +Weather +,2013-08-08 07:45:00,
2013-08-08 01:00:00,76.8,54.6,28.19,North,0,0.0,1.6,88,0.00,,,-99.99,HOBO +U30 +Weather +,2013-08-08 08:00:00,
2013-08-08 01:15:00,76.6,54.5,28.18,NNW,348,1.3,4.5,88,0.00,,,-99.99,HOBO +U30 +Weather +,2013-08-08 08:15:00,
2013-08-08 01:30:00,76.5,54.4,28.18,NW,309,0.9,2.5,90,0.00,,,-99.99,HOBO +U30 +Weather +,2013-08-08 08:30:00,
2013-08-08 01:45:00,76.3,54.1,28.18,North,7,0.9,22.8,91,0.00,,,-99.99,HOBO +U30 +Weather +,2013-08-08 08:45:00,
2013-08-08 02:00:00,76.2,53.7,28.18,NW,310,0.9,23.7,91,0.00,,,-99.99,HOBO +U30 +Weather +,2013-08-08 09:00:00,
2013-08-08 02:15:00,76.0,53.6,28.18,WNW,293,0.9,24.4,90,0.00,,,-99.99,HOBO +U30 +Weather +,2013-08-08 09:15:00,
2013-08-08 02:30:00,75.8,53.3,28.18,SSE,163,0.9,24.2,93,0.00,,,-99.99,HOBO +U30 +Weather +,2013-08-08 09:30:00,
2013-08-08 02:45:00,75.6,53.4,28.18,SE,139,0.0,24.8,94,0.00,,,-99.99,HOBO +U30 +Weather +,2013-08-08 09:45:00,
2013-08-08 03:00:00,75.5,53.1,28.18,SE,139,0.0,0.0,93,0.00,,,-99.99,HOBO +U30 +Weather +,2013-08-08 10:00:00,
2013-08-08 03:15:00,75.3,52.9,28.18,SSE,147,0.0,1.3,93,0.00,,,-99.99,HOBO +U30 +Weather +,2013-08-08 10:15:00,
2013-08-08 03:30:00,75.2,52.6,28.18,SSW,195,0.0,2.0,93,0.00,,,-99.99,HOBO +U30 +Weather +,2013-08-08 10:30:00,
2013-08-08 03:45:00,75.0,52.4,28.18,SSW,195,0.0,25.7,94,0.00,,,-99.99,HOBO +U30 +Weather +,2013-08-08 10:45:00,
2013-08-08 04:00:00,74.9,52.3,28.17,SSW,195,0.0,1.3,94,0.00,,,-99.99,HOBO +U30 +Weather +,2013-08-08 11:00:00,
2013-08-08 04:15:00,74.7,52.2,28.18,SSW,195,0.0,2.0,93,0.00,,,-99.99,HOBO +U30 +Weather +,2013-08-08 11:15:00,
2013-08-08 04:30:00,74.5,51.6,28.18,SSW,195,0.0,25.3,94,0.00,,,-99.99,HOBO +U30 +Weather +,2013-08-08 11:30:00,
2013-08-08 04:45:00,74.3,51.7,28.17,SSW,195,0.0,24.4,94,0.00,,,-99.99,HOBO +U30 +Weather +,2013-08-08 11:45:00,
2013-08-08 05:00:00,74.2,51.1,28.18,SSW,195,0.0,25.3,94,0.00,,,-99.99,HOBO +U30 +Weather +,2013-08-08 12:00:00,
2013-08-08 05:15:00,74.0,51.0,28.18,SSW,195,0.0,0.9,95,0.00,,,-99.99,HOBO +U30 +Weather +,2013-08-08 12:15:00,
2013-08-08 05:30:00,73.9,51.3,28.18,SSW,195,0.0,23.7,94,0.00,,,-99.99,HOBO +U30 +Weather +,2013-08-08 12:30:00,
2013-08-08 05:45:00,73.7,50.7,28.17,SSW,195,0.0,24.8,94,0.00,,,-99.99,HOBO +U30 +Weather +,2013-08-08 12:45:00,
2013-08-08 06:00:00,73.5,50.4,28.17,SSW,197,0.0,24.4,95,0.00,,,-99.99,HOBO +U30 +Weather +,2013-08-08 13:00:00,
2013-08-08 06:15:00,73.4,50.2,28.18,SSW,197,0.0,24.2,95,0.00,,,-99.99,HOBO +U30 +Weather +,2013-08-08 13:15:00,
2013-08-08 06:30:00,73.2,51.0,28.18,SSW,197,0.0,24.4,95,0.00,,,-99.99,HOBO +U30 +Weather +,2013-08-08 13:30:00,
2013-08-08 06:45:00,73.0,50.1,28.19,SW,223,0.4,23.7,94,0.00,,,-99.99,HOBO +U30 +Weather +,2013-08-08 13:45:00,
2013-08-08 07:00:00,72.9,50.9,28.19,SW,229,0.0,1.6,94,0.00,,,-99.99,HOBO +U30 +Weather +,2013-08-08 14:00:00,
2013-08-08 07:15:00,72.7,52.8,28.18,SW,229,0.4,26.2,94,0.00,,,-99.99,HOBO +U30 +Weather +,2013-08-08 14:15:00,
2013-08-08 07:30:00,72.6,55.6,28.18,SSW,209,0.9,27.1,89,0.00,,,-99.99,HOBO +U30 +Weather +,2013-08-08 14:30:00,
2013-08-08 07:45:00,72.5,56.2,28.18,SW,220,0.9,25.7,89,0.00,,,-99.99,HOBO +U30 +Weather +,2013-08-08 14:45:00,
2013-08-08 08:00:00,72.4,55.9,28.17,WSW,241,1.3,4.3,87,0.00,,,-99.99,HOBO +U30 +Weather +,2013-08-08 15:00:00,
2013-08-08 08:15:00,72.3,55.2,28.17,WNW,286,2.5,28.2,85,0.00,,,-99.99,HOBO +U30 +Weather +,2013-08-08 15:15:00,
2013-08-08 08:30:00,72.1,55.5,28.18,SW,215,1.3,20.8,87,0.00,,,-99.99,HOBO +U30 +Weather +,2013-08-08 15:30:00,
2013-08-08 08:45:00,72.1,55.8,28.18,SW,234,1.3,23.7,86,0.00,,,-99.99,HOBO +U30 +Weather +,2013-08-08 15:45:00,
2013-08-08 09:00:00,72.0,56.2,28.18,SW,225,1.6,19.9,85,0.00,,,-99.99,HOBO +U30 +Weather +,2013-08-08 16:00:00,
2013-08-08 09:15:00,71.9,56.6,28.17,West,275,1.6,4.5,83,0.00,,,-99.99,HOBO +U30 +Weather +,2013-08-08 16:15:00,
2013-08-08 09:30:00,71.8,56.5,28.17,NW,305,2.9,21.3,82,0.00,,,-99.99,HOBO +U30 +Weather +,2013-08-08 16:30:00,
2013-08-08 09:45:00,71.8,57.1,28.18,SW,229,2.0,24.8,82,0.00,,,-99.99,HOBO +U30 +Weather +,2013-08-08 16:45:00,
2013-08-08 10:00:00,71.7,59.7,28.17,West,274,2.5,14.5,74,0.00,,,-99.99,HOBO +U30 +Weather +,2013-08-08 17:00:00,
2013-08-08 10:15:00,71.7,58.4,28.17,WNW,282,4.3,24.4,77,0.00,,,-99.99,HOBO +U30 +Weather +,2013-08-08 17:15:00,
2013-08-08 10:30:00,71.7,58.8,28.17,West,279,3.4,20.4,75,0.00,,,-99.99,HOBO +U30 +Weather +,2013-08-08 17:30:00,
2013-08-08 10:45:00,71.7,58.9,28.17,West,278,3.4,25.7,73,0.00,,,-99.99,HOBO +U30 +Weather +,2013-08-08 17:45:00,
2013-08-08 11:00:00,71.7,60.0,28.17,WNW,300,3.4,26.6,70,0.00,,,-99.99,HOBO +U30 +Weather +,2013-08-08 18:00:00,
2013-08-08 11:15:00,71.8,59.0,28.17,West,271,4.5,8.3,70,0.00,,,-99.99,HOBO +U30 +Weather +,2013-08-08 18:15:00,
2013-08-08 11:30:00,71.9,60.1,28.17,WNW,291,4.3,10.3,67,0.00,,,-99.99,HOBO +U30 +Weather +,2013-08-08 18:30:00,
2013-08-08 11:45:00,72.0,59.9,28.17,WNW,288,4.3,30.0,68,0.00,,,-99.99,HOBO +U30 +Weather +,2013-08-08 18:45:00,
2013-08-08 12:00:00,72.1,60.1,28.17,WNW,295,7.2,25.3,65,0.00,,,-99.99,HOBO +U30 +Weather +,2013-08-08 19:00:00,
2013-08-08 12:15:00,72.3,60.9,28.16,WNW,303,4.5,21.3,63,0.00,,,-99.99,HOBO +U30 +Weather +,2013-08-08 19:15:00,
2013-08-08 12:30:00,72.4,60.3,28.16,West,277,4.9,30.0,64,0.00,,,-99.99,HOBO +U30 +Weather +,2013-08-08 19:30:00,
2013-08-08 12:45:00,72.6,61.2,28.16,West,279,4.3,22.8,60,0.00,,,-99.99,HOBO +U30 +Weather +,2013-08-08 19:45:00,
2013-08-08 13:00:00,72.8,61.1,28.16,WNW,299,4.3,24.4,59,0.00,,,-99.99,HOBO +U30 +Weather +,2013-08-08 20:00:00,
2013-08-08 13:15:00,73.0,60.5,28.15,West,279,4.5,18.3,58,0.00,,,-99.99,HOBO +U30 +Weather +,2013-08-08 20:15:00,
2013-08-08 13:30:00,73.2,60.2,28.15,WSW,250,5.8,29.1,59,0.00,,,-99.99,HOBO +U30 +Weather +,2013-08-08 20:30:00,
2013-08-08 14:00:00,73.7,60.2,28.15,West,271,5.8,28.6,58,0.00,,,-99.99,HOBO +U30 +Weather +,2013-08-08 21:00:00,
2013-08-08 14:15:00,74.0,60.0,28.15,WSW,253,6.3,15.4,58,0.00,,,-99.99,HOBO +U30 +Weather +,2013-08-08 21:15:00,
2013-08-08 14:30:00,74.2,60.3,28.14,WSW,256,6.7,19.0,56,0.00,,,-99.99,HOBO +U30 +Weather +,2013-08-08 21:30:00,
2013-08-08 14:45:00,74.5,61.0,28.14,West,265,6.3,16.1,56,0.00,,,-99.99,HOBO +U30 +Weather +,2013-08-08 21:45:00,
2013-08-08 15:00:00,74.8,60.3,28.13,West,263,7.2,20.4,55,0.00,,,-99.99,HOBO +U30 +Weather +,2013-08-08 22:00:00,
2013-08-08 15:15:00,75.0,60.6,28.14,West,265,7.4,15.4,55,0.00,,,-99.99,HOBO +U30 +Weather +,2013-08-08 22:15:00,
2013-08-08 15:30:00,75.3,60.2,28.13,West,277,7.4,18.6,54,0.00,,,-99.99,HOBO +U30 +Weather +,2013-08-08 22:30:00,
2013-08-08 15:45:00,75.5,59.8,28.13,West,264,7.4,24.4,54,0.00,,,-99.99,HOBO +U30 +Weather +,2013-08-08 22:45:00,
2013-08-08 16:00:00,75.8,60.1,28.13,West,271,5.8,18.3,51,0.00,,,-99.99,HOBO +U30 +Weather +,2013-08-08 23:00:00,
2013-08-08 16:15:00,76.1,60.5,28.12,West,265,6.3,27.1,53,0.00,,,-99.99,HOBO +U30 +Weather +,2013-08-08 23:15:00,
2013-08-08 16:30:00,76.4,61.1,28.12,West,263,6.7,28.6,52,0.00,,,-99.99,HOBO +U30 +Weather +,2013-08-08 23:30:00,
2013-08-08 16:45:00,76.6,60.1,28.12,West,263,5.8,22.4,52,0.00,,,-99.99,HOBO +U30 +Weather +,2013-08-08 23:45:00,
2013-08-08 17:00:00,76.9,59.9,28.12,West,272,5.8,12.5,51,0.00,,,-99.99,HOBO +U30 +Weather +,2013-08-09 00:00:00,
2013-08-08 17:15:00,77.1,59.2,28.12,West,260,6.3,25.7,51,0.00,,,-99.99,HOBO +U30 +Weather +,2013-08-09 00:15:00,
2013-08-08 17:30:00,77.4,59.8,28.12,West,268,5.4,21.5,51,0.00,,,-99.99,HOBO +U30 +Weather +,2013-08-09 00:30:00,
2013-08-08 17:45:00,77.6,58.3,28.11,West,268,5.4,11.2,50,0.00,,,-99.99,HOBO +U30 +Weather +,2013-08-09 00:45:00,
2013-08-08 18:00:00,77.8,58.1,28.12,WSW,257,4.9,10.3,51,0.00,,,-99.99,HOBO +U30 +Weather +,2013-08-09 01:00:00,
2013-08-08 18:15:00,78.0,58.6,28.11,WSW,256,4.5,10.7,52,0.00,,,-99.99,HOBO +U30 +Weather +,2013-08-09 01:15:00,
2013-08-08 18:30:00,78.2,58.9,28.11,West,277,4.5,25.3,53,0.00,,,-99.99,HOBO +U30 +Weather +,2013-08-09 01:30:00,
2013-08-08 18:45:00,78.3,59.1,28.11,WNW,284,3.8,14.1,53,0.00,,,-99.99,HOBO +U30 +Weather +,2013-08-09 01:45:00,
2013-08-08 19:00:00,78.4,60.2,28.11,West,268,2.9,22.4,55,0.00,,,-99.99,HOBO +U30 +Weather +,2013-08-09 02:00:00,
2013-08-08 19:15:00,78.4,58.9,28.11,NNW,331,2.0,7.2,60,0.00,,,-99.99,HOBO +U30 +Weather +,2013-08-09 02:15:00,
2013-08-08 19:30:00,78.5,58.5,28.12,WNW,300,4.3,8.3,62,0.00,,,-99.99,HOBO +U30 +Weather +,2013-08-09 02:30:00,
2013-08-08 19:45:00,78.5,58.2,28.12,West,268,4.3,25.3,62,0.00,,,-99.99,HOBO +U30 +Weather +,2013-08-09 02:45:00,
2013-08-08 20:00:00,78.5,58.7,28.11,West,267,2.5,26.6,68,0.00,,,-99.99,HOBO +U30 +Weather +,2013-08-09 03:00:00,
2013-08-08 20:15:00,78.5,58.4,28.11,NNW,345,2.5,24.8,72,0.00,,,-99.99,HOBO +U30 +Weather +,2013-08-09 03:15:00,
2013-08-08 20:30:00,78.5,58.1,28.12,NW,321,2.5,21.5,72,0.00,,,-99.99,HOBO +U30 +Weather +,2013-08-09 03:30:00,
2013-08-08 20:45:00,78.5,58.0,28.12,NNW,348,3.4,6.3,77,0.00,,,-99.99,HOBO +U30 +Weather +,2013-08-09 03:45:00,
2013-08-08 21:00:00,78.4,57.8,28.12,NNW,345,3.4,9.2,78,0.00,,,-99.99,HOBO +U30 +Weather +,2013-08-09 04:00:00,
2013-08-08 21:15:00,78.3,57.7,28.12,North,354,3.8,24.8,79,0.00,,,-99.99,HOBO +U30 +Weather +,2013-08-09 04:15:00,
2013-08-08 21:30:00,78.3,57.6,28.12,North,355,2.5,6.7,79,0.00,,,-99.99,HOBO +U30 +Weather +,2013-08-09 04:30:00,
2013-08-08 21:45:00,78.1,57.7,28.12,NE,34,0.4,24.2,82,0.00,,,-99.99,HOBO +U30 +Weather +,2013-08-09 04:45:00,
2013-08-08 22:00:00,78.0,57.7,28.12,NE,53,0.4,2.0,83,0.00,,,-99.99,HOBO +U30 +Weather +,2013-08-09 05:00:00,
2013-08-08 22:15:00,77.9,57.3,28.12,NE,53,0.9,1.6,86,0.00,,,-99.99,HOBO +U30 +Weather +,2013-08-09 05:15:00,
2013-08-08 22:30:00,77.8,57.3,28.12,NE,53,0.4,2.0,87,0.00,,,-99.99,HOBO +U30 +Weather +,2013-08-09 05:30:00,
2013-08-08 22:45:00,77.6,57.0,28.13,NE,53,0.0,1.6,87,0.00,,,-99.99,HOBO +U30 +Weather +,2013-08-09 05:45:00,
2013-08-08 23:00:00,77.5,56.8,28.13,NE,53,0.4,2.0,88,0.00,,,-99.99,HOBO +U30 +Weather +,2013-08-09 06:00:00,
2013-08-08 23:15:00,77.4,56.8,28.13,ENE,60,0.9,2.9,89,0.00,,,-99.99,HOBO +U30 +Weather +,2013-08-09 06:15:00,
2013-08-08 23:30:00,77.2,56.5,28.13,NE,48,0.4,2.9,90,0.00,,,-99.99,HOBO +U30 +Weather +,2013-08-09 06:30:00,
2013-08-08 23:45:00,77.1,56.6,28.13,NE,42,0.0,24.2,90,0.00,,,-99.99,HOBO +U30 +Weather +,2013-08-09 06:45:00,